Time;durP1;ratioP1;P1;durP2;ratioP2;P2;SDS_P1;SDS_P2;PMS_P1;PMS_P2;Temp;Humidity;BMP_temperature;BMP_pressure;BME280_temperature;BME280_humidity;BME280_pressure;Samples;Min_cycle;Max_cycle;Signal;HPM_P1;HPM_P2
2021/12/25 00:00:57;;;;;;;;;;;-2.70;99.90;;;-2.99;100.00;96572.06;5041286;27;130050;-82
2021/12/25 00:03:36;;;;;;;;;;;-3.00;99.90;;;-3.13;100.00;96613.72;5025901;28;119621;-80
2021/12/25 00:06:05;;;;;;;;;;;-2.80;99.90;;;-3.23;100.00;96598.78;5042135;27;119023;-80
2021/12/25 00:08:33;;;;;;;;;;;-3.00;99.90;;;-3.30;100.00;96604.47;5025050;28;130937;-81
2021/12/25 00:11:14;;;;;;;;;;;-3.00;99.90;;;-3.34;100.00;96621.25;5026876;28;129667;-80
2021/12/25 00:13:43;;;;;;;;;;;-3.10;99.90;;;-3.46;100.00;96621.69;5025411;28;121733;-80
2021/12/25 00:16:12;;;;;;;;;;;-3.10;99.90;;;-3.49;100.00;96638.19;5025206;28;121371;-79
2021/12/25 00:18:40;;;;;;;;;;;-3.20;99.90;;;-3.61;100.00;96644.75;5024858;28;130657;-79
2021/12/25 00:21:08;;;;;;;;;;;-3.30;99.90;;;-3.80;100.00;96675.78;5030840;27;130118;-80
2021/12/25 00:23:37;;;;;;;;;;;-3.50;99.90;;;-4.06;100.00;96676.13;5044989;27;119781;-79
2021/12/25 00:26:10;;;;;;;;;;;-3.60;99.90;;;-4.11;100.00;96713.28;5045447;27;118857;-82
2021/12/25 00:28:59;;;;;;;;;;;-3.60;99.90;;;-4.20;100.00;96696.44;5045026;27;130001;-79
2021/12/25 00:31:47;;;;;;;;;;;-3.70;99.90;;;-4.35;100.00;96708.81;5031471;27;129784;-81
2021/12/25 00:34:25;;;;;;;;;;;-3.80;99.90;;;-4.54;100.00;96721.19;5065712;27;119585;-83
2021/12/25 00:36:55;;;;;;;;;;;-4.00;99.90;;;-4.85;100.00;96737.38;5027191;27;119171;-81
2021/12/25 00:39:25;;;;;;;;;;;-4.20;99.90;;;-4.98;100.00;96745.97;5043452;27;130024;-80
2021/12/25 00:42:08;;;;;;;;;;;-4.30;99.90;;;-5.00;100.00;96740.16;5029877;27;130154;-80
2021/12/25 00:44:38;;;;;;;;;;;-4.30;99.90;;;-4.98;100.00;96759.19;5012297;27;118733;-78
2021/12/25 00:47:07;;;;;;;;;;;-4.40;99.90;;;-5.04;100.00;96749.72;5026922;27;119214;-78
2021/12/25 00:49:36;;;;;;;;;;;-4.40;99.90;;;-4.97;100.00;96758.13;5043865;27;130762;-79
2021/12/25 00:52:05;;;;;;;;;;;-4.50;99.90;;;-4.94;100.00;96770.78;5044104;27;129906;-78
2021/12/25 00:54:35;;;;;;;;;;;-4.50;99.90;;;-5.08;100.00;96766.16;5044429;27;119699;-80
2021/12/25 00:57:03;;;;;;;;;;;-4.60;99.90;;;-5.16;99.48;96779.94;5064298;27;118763;-80
2021/12/25 00:59:34;;;;;;;;;;;-4.80;99.90;;;-5.36;97.30;96801.25;5061438;27;130473;-79
2021/12/25 01:02:04;;;;;;;;;;;-4.90;99.90;;;-5.51;97.19;96805.56;5043122;27;129734;-81
2021/12/25 01:04:33;;;;;;;;;;;-5.00;99.90;;;-5.60;96.48;96818.56;5062561;27;122018;-76
2021/12/25 01:07:01;;;;;;;;;;;-5.20;99.90;;;-5.69;95.58;96820.19;5029330;27;121664;-83
2021/12/25 01:09:29;;;;;;;;;;;-5.30;99.90;;;-5.74;94.62;96824.72;5027016;27;131579;-81
2021/12/25 01:11:58;;;;;;;;;;;-5.40;99.90;;;-5.86;93.32;96831.09;5063418;27;129843;-82
2021/12/25 01:14:34;;;;;;;;;;;-5.50;99.90;;;-5.91;91.81;96839.03;5063853;27;119176;-81
2021/12/25 01:21:03;;;;;;;;;;;-5.80;99.90;;;-6.16;89.95;96848.63;5013358;27;129398;-81
2021/12/25 01:27:02;;;;;;;;;;;-6.20;99.90;;;-6.63;89.08;96870.88;5037357;27;119752;-81
2021/12/25 01:29:39;;;;;;;;;;;-6.40;99.90;;;-6.84;87.70;96874.56;5030368;27;119251;-83
2021/12/25 01:35:27;;;;;;;;;;;-6.60;99.90;;;-7.11;87.01;96901.97;5003458;27;129922;-83
2021/12/25 01:38:23;;;;;;;;;;;-6.70;99.90;;;-7.15;87.02;96914.06;5029384;27;119158;-82
2021/12/25 01:41:18;;;;;;;;;;;-6.90;99.90;;;-7.24;89.35;96908.53;5044227;27;119340;-83
2021/12/25 01:50:00;;;;;;;;;;;-7.20;97.60;;;-7.43;91.95;96942.47;5012110;27;119153;-82
2021/12/25 01:52:30;;;;;;;;;;;-7.20;98.70;;;-7.51;92.11;96950.84;5060350;27;119356;-83
2021/12/25 01:55:00;;;;;;;;;;;-7.20;98.10;;;-7.52;90.55;96970.34;5062907;27;130009;-82
2021/12/25 01:57:29;;;;;;;;;;;-7.30;96.40;;;-7.52;90.62;96967.72;5031278;27;129708;-81
2021/12/25 02:00:00;;;;;;;;;;;-7.30;95.20;;;-7.57;91.89;96979.03;5065535;27;122136;-83
2021/12/25 02:02:29;;;;;;;;;;;-7.30;94.00;;;-7.63;92.04;96980.84;5032180;27;120970;-84
2021/12/25 02:04:57;;;;;;;;;;;-7.30;91.10;;;-7.68;92.81;96993.97;5015667;27;129091;-82
2021/12/25 02:07:25;;;;;;;;;;;-7.30;90.00;;;-7.73;92.05;96995.78;5049446;27;128768;-79
2021/12/25 02:09:55;;;;;;;;;;;-7.30;89.30;;;-7.75;91.92;96998.66;5063378;27;119890;-80
2021/12/25 02:12:23;;;;;;;;;;;-7.40;87.70;;;-7.72;91.97;97003.44;5032482;27;119504;-79
2021/12/25 02:14:52;;;;;;;;;;;-7.40;90.10;;;-7.85;93.23;96998.59;5065958;27;129675;-80
2021/12/25 02:17:26;;;;;;;;;;;-7.40;89.30;;;-7.90;93.03;97012.53;5049425;27;129799;-82
2021/12/25 02:20:17;;;;;;;;;;;-7.40;85.60;;;-7.99;94.38;97017.47;5062966;27;119827;-82
2021/12/25 02:22:48;;;;;;;;;;;-7.40;82.40;;;-8.03;94.20;97029.53;5012625;27;118287;-82
2021/12/25 02:25:17;;;;;;;;;;;-7.50;81.90;;;-8.12;94.58;97025.78;5011342;27;128958;-82
2021/12/25 02:27:46;;;;;;;;;;;-7.50;77.40;;;-8.13;94.98;97037.38;5030607;27;128689;-82
2021/12/25 02:30:15;;;;;;;;;;;-7.50;77.60;;;-8.20;95.23;97040.19;5032884;27;118647;-82
2021/12/25 02:32:44;;;;;;;;;;;-7.60;77.80;;;-8.28;95.41;97053.81;5015939;27;118231;-81
2021/12/25 02:35:13;;;;;;;;;;;-7.60;76.70;;;-8.35;95.71;97048.75;5030130;27;129996;-83
2021/12/25 02:37:44;;;;;;;;;;;-7.80;76.00;;;-8.44;96.15;97045.03;5032874;27;129839;-83
2021/12/25 02:40:14;;;;;;;;;;;-7.80;76.60;;;-8.49;96.46;97063.41;5047750;27;120345;-82
2021/12/25 02:42:43;;;;;;;;;;;-7.90;77.20;;;-8.50;96.05;97064.44;5029528;27;119624;-83
2021/12/25 02:45:16;;;;;;;;;;;-7.90;77.40;;;-8.49;96.42;97068.66;5048632;27;129212;-82
2021/12/25 02:47:46;;;;;;;;;;;-7.90;77.10;;;-8.58;96.80;97080.66;5046985;27;130603;-83
2021/12/25 02:50:24;;;;;;;;;;;-7.90;76.80;;;-8.67;97.07;97082.91;5047459;27;121462;-82
2021/12/25 02:52:52;;;;;;;;;;;-8.00;77.10;;;-8.73;97.23;97083.91;5049326;27;120628;-83
2021/12/25 02:55:22;;;;;;;;;;;-8.10;77.70;;;-8.82;97.61;97101.16;5065814;27;130012;-85
2021/12/25 02:58:05;;;;;;;;;;;-8.10;78.10;;;-8.86;97.65;97095.59;5062628;27;130234;-85
2021/12/25 03:00:38;;;;;;;;;;;-8.10;77.40;;;-8.97;98.47;97096.53;5032373;27;119469;-84
2021/12/25 03:03:07;;;;;;;;;;;-8.20;77.20;;;-9.00;98.45;97099.63;5047790;27;119113;-83
2021/12/25 03:05:36;;;;;;;;;;;-8.30;76.80;;;-9.07;98.22;97100.59;5031477;27;129836;-83
2021/12/25 03:08:06;;;;;;;;;;;-8.30;78.40;;;-9.10;98.46;97116.06;5031528;27;130259;-84
2021/12/25 03:10:45;;;;;;;;;;;-8.40;78.80;;;-9.11;98.64;97119.75;5033072;27;121913;-82
2021/12/25 03:13:30;;;;;;;;;;;-8.40;79.70;;;-9.20;98.45;97132.47;5048262;27;118741;-81
2021/12/25 03:15:59;;;;;;;;;;;-8.40;78.90;;;-9.28;98.49;97135.53;5029916;27;129673;-81
2021/12/25 03:18:31;;;;;;;;;;;-8.50;78.60;;;-9.25;98.45;97153.44;5046950;27;130278;-82
2021/12/25 03:21:02;;;;;;;;;;;-8.50;78.70;;;-9.31;98.61;97157.03;5031290;27;120462;-84
2021/12/25 03:23:31;;;;;;;;;;;-8.50;76.80;;;-9.34;98.02;97163.53;5031651;27;118746;-84
2021/12/25 03:26:02;;;;;;;;;;;-8.50;76.30;;;-9.38;98.48;97172.94;5064990;27;130353;-83
2021/12/25 03:28:33;;;;;;;;;;;-8.60;75.60;;;-9.37;97.97;97179.78;5064995;27;129610;-83
2021/12/25 03:31:05;;;;;;;;;;;-8.60;76.40;;;-9.43;98.36;97186.78;5046371;27;120219;-83
2021/12/25 03:33:34;;;;;;;;;;;-8.70;75.50;;;-9.50;98.67;97182.75;5014947;27;118361;-83
2021/12/25 03:36:02;;;;;;;;;;;-8.70;75.60;;;-9.51;98.18;97189.81;5028129;27;129525;-81
2021/12/25 03:38:30;;;;;;;;;;;-8.80;75.90;;;-9.42;98.06;97190.22;5062594;27;130404;-84
2021/12/25 03:41:01;;;;;;;;;;;-8.70;76.60;;;-9.43;97.89;97194.66;5013584;27;121101;-80
2021/12/25 03:43:30;;;;;;;;;;;-8.70;76.60;;;-9.38;97.99;97198.41;5031280;27;121282;-82
2021/12/25 03:45:58;;;;;;;;;;;-8.70;76.10;;;-9.44;97.31;97203.59;5030801;27;129553;-82
2021/12/25 03:48:46;;;;;;;;;;;-8.70;76.20;;;-9.41;97.40;97200.50;5027478;27;130082;-82
2021/12/25 03:59:46;;;;;;;;;;;-8.90;75.70;;;-9.55;98.27;97214.16;5046092;27;130326;-83
2021/12/25 04:02:19;;;;;;;;;;;-8.80;76.10;;;-9.59;97.57;97213.84;5045918;27;119937;-83
2021/12/25 04:04:49;;;;;;;;;;;-8.90;76.00;;;-9.69;97.87;97218.91;5028072;27;117894;-83
2021/12/25 04:07:44;;;;;;;;;;;-9.00;76.00;;;-9.63;97.61;97220.59;5044587;27;130332;-82
2021/12/25 04:10:13;;;;;;;;;;;-9.00;76.60;;;-9.63;97.75;97225.84;5030096;27;129439;-80
2021/12/25 04:12:44;;;;;;;;;;;-9.00;78.10;;;-9.60;98.49;97233.25;5047021;27;119101;-80
2021/12/25 04:15:24;;;;;;;;;;;-8.90;79.10;;;-9.61;98.06;97236.94;5031320;27;118744;-81
2021/12/25 04:17:52;;;;;;;;;;;-8.90;78.10;;;-9.66;97.88;97244.69;5064384;27;130614;-80
2021/12/25 04:20:20;;;;;;;;;;;-8.90;77.80;;;-9.65;98.09;97256.81;5029629;27;129870;-80
2021/12/25 04:22:50;;;;;;;;;;;-8.90;78.40;;;-9.66;98.44;97256.03;5030382;27;119441;-81
2021/12/25 04:25:23;;;;;;;;;;;-8.90;79.20;;;-9.69;98.76;97261.75;5013361;27;119519;-80
2021/12/25 04:27:54;;;;;;;;;;;-8.90;78.60;;;-9.63;98.86;97266.06;5045021;27;130005;-81
2021/12/25 04:42:41;;;;;;;;;;;-8.90;77.70;;;-9.63;98.95;97276.56;5048484;27;102444;-81
2021/12/25 05:04:22;;;;;;;;;;;-8.90;86.30;;;-9.65;100.00;97330.31;5048621;27;130519;-82
2021/12/25 05:07:15;;;;;;;;;;;-9.00;86.60;;;-9.57;100.00;97332.56;5044910;27;118765;-82
2021/12/25 05:09:43;;;;;;;;;;;-9.00;87.90;;;-9.54;99.82;97332.09;5045369;27;112938;-83
2021/12/25 05:12:11;;;;;;;;;;;-9.00;88.80;;;-9.64;99.93;97332.72;5042273;27;129927;-83
2021/12/25 05:14:40;;;;;;;;;;;-9.00;89.00;;;-9.58;99.92;97338.88;5042231;27;129738;-80
2021/12/25 05:17:11;;;;;;;;;;;-9.00;89.90;;;-9.66;100.00;97334.78;5027592;27;117419;-74
2021/12/25 05:19:40;;;;;;;;;;;-9.00;90.10;;;-9.59;100.00;97355.66;5043978;27;112780;-81
2021/12/25 05:22:13;;;;;;;;;;;-8.90;90.10;;;-9.56;99.93;97360.44;5039671;27;130411;-82
2021/12/25 05:24:43;;;;;;;;;;;-8.90;88.90;;;-9.62;99.59;97356.13;5060185;27;129398;-82
2021/12/25 05:27:14;;;;;;;;;;;-8.80;88.20;;;-9.60;99.45;97359.28;5043243;27;118628;-82
2021/12/25 05:29:46;;;;;;;;;;;-8.90;87.50;;;-9.58;99.54;97362.50;5024094;27;113364;-81
2021/12/25 05:32:17;;;;;;;;;;;-8.90;87.40;;;-9.66;99.57;97370.72;5060611;27;129881;-82
2021/12/25 05:35:09;;;;;;;;;;;-8.90;86.40;;;-9.65;99.64;97375.75;5039062;27;130002;-82
2021/12/25 05:37:58;;;;;;;;;;;-8.90;85.40;;;-9.62;99.01;97379.75;5038743;27;118486;-82
2021/12/25 05:40:52;;;;;;;;;;;-9.00;85.20;;;-9.76;99.39;97398.38;5041227;27;113571;-82
2021/12/25 05:43:20;;;;;;;;;;;-9.00;85.00;;;-9.72;98.92;97408.41;5069770;27;129549;-82
2021/12/25 05:45:49;;;;;;;;;;;-9.00;84.40;;;-9.76;99.39;97401.00;5027615;28;129355;-82
2021/12/25 05:48:36;;;;;;;;;;;-9.00;84.20;;;-9.67;99.55;97416.41;5053319;27;118556;-82
2021/12/25 05:51:43;;;;;;;;;;;-9.00;83.90;;;-9.79;99.05;97413.81;5028135;28;113212;-82
2021/12/25 05:54:37;;;;;;;;;;;-9.10;82.40;;;-9.85;99.61;97420.75;5025861;28;129879;-82
2021/12/25 05:57:21;;;;;;;;;;;-9.00;84.00;;;-9.80;99.57;97418.25;5007339;28;129527;-82
2021/12/25 06:00:13;;;;;;;;;;;-9.00;82.20;;;-9.85;99.81;97433.88;4997763;28;119214;-82
2021/12/25 06:02:44;;;;;;;;;;;-9.10;81.60;;;-9.80;99.66;97439.28;5027994;28;113446;-81
2021/12/25 06:05:20;;;;;;;;;;;-9.10;82.70;;;-9.87;100.00;97443.84;5029064;28;130392;-81
2021/12/25 06:07:48;;;;;;;;;;;-9.10;84.20;;;-9.94;100.00;97443.97;5028953;28;129450;-82
2021/12/25 06:10:17;;;;;;;;;;;-9.20;84.30;;;-9.86;100.00;97444.63;5027116;28;120002;-82
2021/12/25 06:12:47;;;;;;;;;;;-9.20;85.70;;;-9.91;100.00;97447.94;5029177;27;112317;-81
2021/12/25 06:15:19;;;;;;;;;;;-9.10;86.30;;;-9.84;100.00;97453.88;5026546;28;130513;-82
2021/12/25 06:17:58;;;;;;;;;;;-9.20;86.90;;;-9.91;100.00;97468.13;5029296;28;129223;-82
2021/12/25 06:20:35;;;;;;;;;;;-9.30;87.50;;;-9.97;100.00;97469.84;5012497;28;118878;-81
2021/12/25 06:23:20;;;;;;;;;;;-9.30;88.20;;;-9.92;100.00;97469.97;5046726;27;112992;-81
2021/12/25 06:26:07;;;;;;;;;;;-9.30;88.50;;;-9.89;100.00;97471.31;5028711;28;130012;-82
2021/12/25 06:29:05;;;;;;;;;;;-9.30;89.00;;;-9.88;100.00;97471.09;5063360;27;131468;-80
2021/12/25 06:32:09;;;;;;;;;;;-9.40;88.90;;;-9.90;100.00;97482.88;5019653;28;118660;-78
2021/12/25 06:34:41;;;;;;;;;;;-9.20;88.60;;;-9.80;100.00;97485.69;5028768;28;112445;-80
2021/12/25 06:37:30;;;;;;;;;;;-9.30;88.40;;;-9.83;100.00;97481.72;5015382;28;130196;-82
2021/12/25 06:40:11;;;;;;;;;;;-9.20;88.90;;;-9.78;100.00;97479.22;5027071;28;130390;-78
2021/12/25 06:42:41;;;;;;;;;;;-9.20;88.70;;;-9.82;99.42;97480.69;5023829;28;119193;-77
2021/12/25 06:45:12;;;;;;;;;;;-9.20;88.20;;;-9.59;98.92;97474.59;5042816;27;113579;-78
2021/12/25 06:47:40;;;;;;;;;;;-9.20;88.40;;;-9.61;99.28;97483.78;5009399;28;129564;-80
2021/12/25 06:50:12;;;;;;;;;;;-9.10;88.40;;;-9.56;98.84;97485.69;5009263;28;130047;-80
2021/12/25 06:53:07;;;;;;;;;;;-9.10;87.50;;;-9.57;98.74;97505.91;5028420;28;118090;-79
2021/12/25 06:55:53;;;;;;;;;;;-9.00;85.50;;;-9.46;98.34;97506.91;5028530;27;113911;-79
2021/12/25 06:58:24;;;;;;;;;;;-9.00;84.80;;;-9.32;98.00;97510.09;5010802;28;128984;-78
2021/12/25 07:00:56;;;;;;;;;;;-9.00;84.30;;;-9.28;97.34;97509.41;5022377;28;130564;-79
2021/12/25 07:03:24;;;;;;;;;;;-9.00;84.30;;;-9.18;96.64;97519.31;5023787;28;118946;-77
2021/12/25 07:06:11;;;;;;;;;;;-9.00;84.50;;;-9.14;96.23;97522.28;5026960;28;113342;-78
2021/12/25 07:09:09;;;;;;;;;;;-8.90;83.60;;;-8.91;95.33;97529.28;5029388;27;130497;-77
2021/12/25 07:11:54;;;;;;;;;;;-8.80;83.80;;;-8.92;95.18;97530.34;5062705;27;129678;-79
2021/12/25 07:15:01;;;;;;;;;;;-8.80;83.30;;;-8.88;95.50;97534.06;5007155;28;118855;-79
2021/12/25 07:17:50;;;;;;;;;;;-8.80;82.90;;;-8.73;94.72;97534.38;5003913;28;113062;-79
2021/12/25 07:20:42;;;;;;;;;;;-8.70;82.50;;;-8.75;94.85;97536.44;5017740;28;130185;-78
2021/12/25 07:23:34;;;;;;;;;;;-8.60;82.40;;;-8.70;94.90;97541.78;5028285;28;130473;-78
2021/12/25 07:26:09;;;;;;;;;;;-8.60;81.80;;;-8.68;94.79;97550.25;5025475;28;119014;-78
2021/12/25 07:28:44;;;;;;;;;;;-8.50;80.30;;;-8.36;94.34;97562.88;5028812;28;113537;-79
2021/12/25 07:31:13;;;;;;;;;;;-8.40;80.50;;;-8.18;92.79;97566.34;5029694;27;129543;-79
2021/12/25 07:33:43;;;;;;;;;;;-8.20;80.30;;;-8.14;92.01;97575.38;5046498;27;129853;-80
2021/12/25 07:36:12;;;;;;;;;;;-8.30;78.80;;;-8.34;93.46;97566.06;5047054;27;119401;-80
2021/12/25 07:38:41;;;;;;;;;;;-8.20;76.80;;;-8.48;94.10;97570.06;5047202;27;113129;-79
2021/12/25 07:41:09;;;;;;;;;;;-8.20;76.30;;;-8.33;94.26;97588.72;5046578;27;130108;-79
2021/12/25 07:43:37;;;;;;;;;;;-8.10;77.20;;;-8.29;94.98;97604.06;5065659;27;129761;-79
2021/12/25 07:46:16;;;;;;;;;;;-8.00;77.50;;;-8.23;94.92;97603.09;5030937;27;117895;-79
2021/12/25 07:48:47;;;;;;;;;;;-7.90;77.70;;;-8.19;95.12;97606.88;5029094;27;113480;-79
2021/12/25 07:51:15;;;;;;;;;;;-7.90;77.60;;;-8.11;95.52;97595.16;5014719;27;129909;-79
2021/12/25 07:53:45;;;;;;;;;;;-7.80;78.60;;;-8.02;95.32;97612.97;5045771;27;129991;-79
2021/12/25 07:56:13;;;;;;;;;;;-7.70;79.50;;;-7.88;95.32;97610.81;5046250;27;118965;-79
2021/12/25 07:58:42;;;;;;;;;;;-7.60;80.50;;;-7.84;95.34;97616.41;5030584;27;113783;-78
2021/12/25 08:01:10;;;;;;;;;;;-7.60;80.60;;;-7.85;95.72;97620.06;5063500;27;130018;-79
2021/12/25 08:03:39;;;;;;;;;;;-7.60;81.40;;;-7.83;96.61;97633.81;5045969;27;129612;-78
2021/12/25 08:06:18;;;;;;;;;;;-7.50;84.00;;;-7.81;96.57;97634.38;5045933;27;118829;-78
2021/12/25 08:08:49;;;;;;;;;;;-7.50;85.60;;;-7.75;96.34;97646.59;5031667;27;112946;-78
2021/12/25 08:11:17;;;;;;;;;;;-7.50;86.10;;;-7.76;96.82;97647.59;5045662;27;130888;-79
2021/12/25 08:13:45;;;;;;;;;;;-7.40;88.70;;;-7.57;97.68;97631.56;5013040;27;128832;-76
2021/12/25 08:16:13;;;;;;;;;;;-7.30;90.20;;;-7.59;97.43;97666.06;5045518;27;118724;-80
2021/12/25 08:18:41;;;;;;;;;;;-7.30;89.70;;;-7.57;97.94;97644.75;5025977;28;113213;-77
2021/12/25 08:21:30;;;;;;;;;;;-7.30;90.30;;;-7.45;97.53;97653.38;5036831;27;129886;-79
2021/12/25 08:24:21;;;;;;;;;;;-7.20;90.20;;;-7.29;96.80;97665.78;5008367;27;129343;-79
2021/12/25 08:27:15;;;;;;;;;;;-7.10;90.70;;;-7.34;97.04;97668.31;5044706;27;119170;-79
2021/12/25 08:30:17;;;;;;;;;;;-7.10;90.40;;;-7.41;97.61;97667.69;5005706;28;113015;-79
2021/12/25 08:33:04;;;;;;;;;;;-7.10;90.20;;;-7.27;97.20;97658.41;5028200;28;130220;-78
2021/12/25 08:36:04;;;;;;;;;;;-7.00;90.70;;;-7.01;96.58;97665.88;5015902;28;129917;-77
2021/12/25 08:38:34;;;;;;;;;;;-6.90;90.00;;;-7.04;96.04;97677.72;5010155;28;118525;-78
2021/12/25 08:41:02;;;;;;;;;;;-6.80;90.00;;;-6.92;96.06;97670.53;5026896;28;113608;-79
2021/12/25 08:43:34;;;;;;;;;;;-6.80;89.30;;;-6.93;95.94;97679.47;5027230;27;130620;-79
2021/12/25 08:46:12;;;;;;;;;;;-6.70;88.60;;;-6.86;95.66;97679.28;5029496;28;130304;-82
2021/12/25 08:48:40;;;;;;;;;;;-6.60;86.80;;;-6.65;96.00;97685.66;5023861;28;119307;-78
2021/12/25 08:51:08;;;;;;;;;;;-6.60;86.80;;;-6.64;94.63;97681.94;5024624;28;113212;-79
2021/12/25 08:53:39;;;;;;;;;;;-6.60;85.00;;;-6.54;95.00;97692.66;5037443;27;130022;-78
2021/12/25 08:56:07;;;;;;;;;;;-6.50;86.10;;;-6.45;94.90;97700.13;5048364;27;131142;-79
2021/12/25 08:58:35;;;;;;;;;;;-6.40;84.60;;;-6.37;94.08;97702.38;5045678;27;118907;-79
2021/12/25 09:01:07;;;;;;;;;;;-6.40;81.90;;;-6.37;94.31;97712.94;5027348;27;115178;-79
2021/12/25 09:03:35;;;;;;;;;;;-6.30;80.30;;;-6.19;94.29;97702.03;5029798;27;130312;-79
2021/12/25 09:06:05;;;;;;;;;;;-6.20;81.80;;;-5.94;92.91;97705.97;5029425;27;130243;-78
2021/12/25 09:08:33;;;;;;;;;;;-6.00;81.40;;;-6.03;93.08;97703.03;5045091;27;119358;-79
2021/12/25 09:11:03;;;;;;;;;;;-6.00;77.90;;;-6.02;92.52;97709.09;5045112;27;115754;-79
2021/12/25 09:13:33;;;;;;;;;;;-6.00;76.70;;;-5.84;92.83;97715.88;5026544;27;130411;-79
2021/12/25 09:16:09;;;;;;;;;;;-5.90;76.10;;;-5.83;91.48;97718.28;5047626;27;130569;-80
2021/12/25 09:18:38;;;;;;;;;;;-6.00;73.00;;;-5.90;92.13;97717.66;5046102;27;119465;-80
2021/12/25 09:21:11;;;;;;;;;;;-6.00;73.30;;;-5.77;92.48;97717.25;5016771;27;115346;-78
2021/12/25 09:23:39;;;;;;;;;;;-5.80;74.80;;;-5.70;91.76;97721.53;5046096;27;129802;-78
2021/12/25 09:26:09;;;;;;;;;;;-5.80;73.90;;;-5.78;91.99;97726.25;5015881;27;128921;-79
2021/12/25 09:28:38;;;;;;;;;;;-5.90;71.90;;;-5.67;92.06;97713.94;5032977;27;118834;-78
2021/12/25 09:31:06;;;;;;;;;;;-5.80;74.40;;;-5.85;92.65;97725.63;5047984;27;115414;-79
2021/12/25 09:33:35;;;;;;;;;;;-5.80;71.70;;;-5.69;93.16;97723.16;5047178;27;130843;-79
2021/12/25 09:36:04;;;;;;;;;;;-5.80;74.00;;;-5.82;93.10;97730.41;5047468;27;130044;-75
2021/12/25 09:38:33;;;;;;;;;;;-6.00;72.90;;;-5.95;93.12;97728.19;5047711;27;118092;-79
2021/12/25 09:41:02;;;;;;;;;;;-5.90;71.90;;;-5.87;93.45;97748.88;5047904;27;115538;-79
2021/12/25 09:43:32;;;;;;;;;;;-5.90;74.90;;;-5.96;94.48;97734.50;5047575;27;130394;-81
2021/12/25 09:46:00;;;;;;;;;;;-5.80;76.00;;;-5.98;95.18;97741.91;5015659;27;129516;-80
2021/12/25 09:48:29;;;;;;;;;;;-5.80;78.70;;;-5.85;95.24;97738.03;5015617;27;119010;-79
2021/12/25 09:50:57;;;;;;;;;;;-5.70;79.00;;;-5.58;95.02;97739.91;5050123;27;114787;-80
2021/12/25 09:53:28;;;;;;;;;;;-5.60;81.50;;;-5.58;95.08;97735.41;5047797;27;129613;-78
2021/12/25 09:55:57;;;;;;;;;;;-5.60;81.50;;;-5.62;94.39;97744.91;5066055;27;130232;-79
2021/12/25 09:58:25;;;;;;;;;;;-5.50;82.10;;;-5.32;93.96;97743.59;5029088;27;119140;-80
2021/12/25 10:00:57;;;;;;;;;;;-5.40;81.40;;;-5.49;93.30;97748.97;5047022;27;115571;-81
2021/12/25 10:03:27;;;;;;;;;;;-5.50;78.10;;;-5.36;93.86;97747.78;5031895;27;129902;-80
2021/12/25 10:05:55;;;;;;;;;;;-5.40;80.80;;;-5.56;94.15;97748.38;5028534;27;130464;-80
2021/12/25 10:08:26;;;;;;;;;;;-5.50;77.70;;;-5.61;94.95;97746.47;5047438;27;119534;-79
2021/12/25 10:10:57;;;;;;;;;;;-5.60;79.20;;;-5.58;95.11;97750.47;5048687;27;114787;-80
2021/12/25 10:13:28;;;;;;;;;;;-5.50;80.90;;;-5.68;95.15;97756.47;5047433;27;129771;-79
2021/12/25 10:16:00;;;;;;;;;;;-5.50;80.30;;;-5.64;95.34;97752.25;5049269;27;130665;-78
2021/12/25 10:18:31;;;;;;;;;;;-5.50;80.30;;;-5.61;95.68;97746.47;5032093;27;117948;-80
2021/12/25 10:21:15;;;;;;;;;;;-5.50;82.50;;;-5.52;95.39;97742.34;5066179;27;115098;-80
2021/12/25 10:23:44;;;;;;;;;;;-5.50;83.20;;;-5.53;96.11;97738.13;5031299;27;129439;-80
2021/12/25 10:26:12;;;;;;;;;;;-5.40;84.70;;;-5.50;95.99;97748.19;5047151;27;129900;-79
2021/12/25 10:28:41;;;;;;;;;;;-5.40;86.50;;;-5.54;95.71;97731.22;5031624;27;118593;-79
2021/12/25 10:31:16;;;;;;;;;;;-5.40;88.00;;;-5.54;97.01;97741.81;5047492;27;114928;-79
2021/12/25 10:33:51;;;;;;;;;;;-5.50;90.80;;;-5.53;97.97;97732.84;5030738;27;129607;-77
2021/12/25 10:36:25;;;;;;;;;;;-5.40;93.00;;;-5.52;98.03;97744.19;5046231;27;130006;-79
2021/12/25 10:39:01;;;;;;;;;;;-5.40;93.60;;;-5.40;97.42;97741.41;5047572;27;118952;-80
2021/12/25 10:41:30;;;;;;;;;;;-5.40;93.70;;;-5.29;97.09;97738.59;5048252;27;115220;-79
2021/12/25 10:44:15;;;;;;;;;;;-5.30;93.90;;;-5.22;96.90;97745.53;5048499;27;130237;-79
2021/12/25 10:46:53;;;;;;;;;;;-5.20;93.90;;;-5.14;96.88;97740.56;5066323;27;129847;-79
2021/12/25 10:49:23;;;;;;;;;;;-5.10;93.10;;;-4.96;95.46;97742.03;5028900;27;117954;-80
2021/12/25 10:51:52;;;;;;;;;;;-5.10;92.20;;;-4.98;95.29;97743.34;5046423;27;115980;-81
2021/12/25 10:54:36;;;;;;;;;;;-5.10;90.70;;;-5.18;95.64;97736.81;5064868;27;129705;-80
2021/12/25 10:57:06;;;;;;;;;;;-5.10;90.30;;;-4.99;95.73;97739.09;5032654;27;129353;-80
2021/12/25 10:59:43;;;;;;;;;;;-5.10;89.00;;;-5.10;95.69;97757.53;5067004;27;119546;-80
2021/12/25 11:02:30;;;;;;;;;;;-5.10;88.40;;;-5.04;95.78;97749.66;5068091;27;114733;-81
2021/12/25 11:04:58;;;;;;;;;;;-5.10;86.40;;;-4.97;95.43;97752.84;5034199;27;129176;-80
2021/12/25 11:07:27;;;;;;;;;;;-5.00;85.70;;;-4.94;95.55;97747.06;5067142;27;130727;-81
2021/12/25 11:10:16;;;;;;;;;;;-4.80;86.50;;;-4.95;95.10;97759.50;5067228;27;118851;-80
2021/12/25 11:12:45;;;;;;;;;;;-4.90;84.30;;;-5.07;95.04;97764.94;5066999;27;114992;-79
2021/12/25 11:15:17;;;;;;;;;;;-5.00;82.00;;;-4.92;95.10;97763.50;5048190;27;130320;-81
2021/12/25 11:17:52;;;;;;;;;;;-4.90;81.90;;;-5.06;94.52;97763.91;5048116;27;129885;-80
2021/12/25 11:20:28;;;;;;;;;;;-4.90;78.30;;;-5.00;94.86;97761.28;5054796;27;118582;-80
2021/12/25 11:22:58;;;;;;;;;;;-4.90;77.70;;;-5.03;94.37;97767.09;5031714;27;114502;-81
2021/12/25 11:25:30;;;;;;;;;;;-4.90;75.60;;;-5.00;94.18;97771.88;5046214;27;130127;-81
2021/12/25 11:28:00;;;;;;;;;;;-4.90;74.40;;;-4.89;94.18;97768.28;5045410;27;129959;-80
2021/12/25 11:30:31;;;;;;;;;;;-4.80;75.20;;;-4.99;94.53;97762.91;5024464;28;119159;-80
2021/12/25 11:33:01;;;;;;;;;;;-4.80;73.00;;;-4.78;94.20;97763.88;5045671;27;115236;-81
2021/12/25 11:35:31;;;;;;;;;;;-4.70;73.50;;;-4.57;93.31;97775.38;5045745;27;130792;-80
2021/12/25 11:38:03;;;;;;;;;;;-4.60;73.90;;;-4.50;92.79;97770.66;5030172;27;129021;-80
2021/12/25 11:40:53;;;;;;;;;;;-4.50;73.00;;;-4.50;92.48;97770.66;5045444;27;119069;-81
2021/12/25 11:43:36;;;;;;;;;;;-4.50;70.40;;;-4.49;93.02;97774.91;5013830;27;114785;-79
2021/12/25 11:46:07;;;;;;;;;;;-4.40;71.00;;;-4.61;92.57;97784.88;5048561;27;131687;-80
2021/12/25 11:48:37;;;;;;;;;;;-4.50;68.90;;;-4.62;93.15;97775.34;5045603;27;129788;-80
2021/12/25 11:51:06;;;;;;;;;;;-4.50;68.30;;;-4.78;93.31;97774.47;5030149;27;118767;-81
2021/12/25 11:53:45;;;;;;;;;;;-4.70;66.70;;;-4.75;94.13;97769.44;5010585;28;114068;-82
2021/12/25 11:56:29;;;;;;;;;;;-4.60;69.70;;;-4.65;93.84;97778.50;5044064;27;130303;-81
2021/12/25 11:59:02;;;;;;;;;;;-4.50;70.80;;;-4.43;93.64;97776.53;5044152;27;130039;-81
2021/12/25 12:01:34;;;;;;;;;;;-4.40;72.30;;;-4.25;92.22;97783.25;5012000;27;119257;-81
2021/12/25 12:04:13;;;;;;;;;;;-4.50;71.20;;;-4.26;91.86;97786.16;5027959;27;114796;-79
2021/12/25 12:07:01;;;;;;;;;;;-4.30;68.80;;;-4.41;91.82;97785.03;5045513;27;130468;-79
2021/12/25 12:09:56;;;;;;;;;;;-4.50;66.10;;;-4.58;91.31;97789.66;5032002;27;130062;-80
2021/12/25 12:13:24;;;;;;;;;;;-4.40;56.30;;;-4.67;91.14;97791.19;4971719;28;119288;-81
2021/12/25 12:16:38;;;;;;;;;;;-4.40;57.90;;;-4.59;89.76;97794.16;5023639;27;114207;-81
2021/12/25 12:19:46;;;;;;;;;;;-4.50;51.40;;;-4.73;90.64;97791.16;5027877;27;130098;-79
2021/12/25 12:26:06;;;;;;;;;;;-4.40;47.70;;;-4.96;89.67;97816.09;4983184;28;119283;-80
2021/12/25 12:28:52;;;;;;;;;;;-4.60;43.80;;;-4.85;89.74;97817.00;4986231;28;114433;-81
2021/12/25 12:31:43;;;;;;;;;;;-4.60;44.60;;;-4.99;90.25;97815.81;5042848;27;130788;-81
2021/12/25 12:34:40;;;;;;;;;;;-4.60;42.80;;;-4.82;90.06;97810.41;5044743;27;129790;-81
2021/12/25 12:37:30;;;;;;;;;;;-4.60;44.90;;;-4.83;89.24;97812.28;5045000;27;119191;-79
2021/12/25 12:40:26;;;;;;;;;;;-4.50;43.70;;;-4.93;90.00;97814.81;5027517;27;115651;-79
2021/12/25 12:43:01;;;;;;;;;;;-4.50;42.80;;;-4.92;89.25;97822.50;5044861;27;130176;-79